createdAt,value
2023-04-01T00:00:45.641Z,220.91
2023-04-01T00:01:45.571Z,220.40
2023-04-01T00:02:45.562Z,220.20
2023-04-01T00:03:45.615Z,220.02
2023-04-01T00:04:45.540Z,220.77
2023-04-01T00:05:45.311Z,220.23
2023-04-01T00:06:45.244Z,220.94
2023-04-01T00:07:45.174Z,220.58
2023-04-01T00:08:45.140Z,220.52
2023-04-01T00:09:45.105Z,220.64
2023-04-01T00:10:45.009Z,220.25
2023-04-01T00:11:44.948Z,220.08
2023-04-01T00:12:44.964Z,220.74
2023-04-01T00:13:44.857Z,219.74
2023-04-01T00:14:44.898Z,220.67
2023-04-01T00:15:44.744Z,220.25
2023-04-01T00:16:44.825Z,220.62
2023-04-01T00:17:44.674Z,220.09
2023-04-01T00:18:44.557Z,220.28
2023-04-01T00:19:44.509Z,220.64
2023-04-01T00:20:44.448Z,219.62
2023-04-01T00:21:44.380Z,221.17
2023-04-01T00:22:44.347Z,220.51
2023-04-01T00:23:44.276Z,219.22
2023-04-01T00:24:44.624Z,220.00
2023-04-01T00:25:44.169Z,220.42
2023-04-01T00:26:44.189Z,219.75
2023-04-01T00:27:44.044Z,220.10
2023-04-01T00:28:44.012Z,219.36
2023-04-01T00:29:44.119Z,219.89
2023-04-01T00:30:43.886Z,220.44
2023-04-01T00:31:43.879Z,220.00
2023-04-01T00:32:43.834Z,219.67
2023-04-01T00:33:43.731Z,219.98
2023-04-01T00:34:43.720Z,218.28
2023-04-01T00:35:43.595Z,220.32
2023-04-01T00:36:43.526Z,220.41
2023-04-01T00:37:43.455Z,220.22
2023-04-01T00:38:43.458Z,219.40
2023-04-01T00:39:43.359Z,219.10
2023-04-01T00:40:43.282Z,219.41
2023-04-01T00:41:43.207Z,219.04
2023-04-01T00:42:43.155Z,219.55
2023-04-01T00:43:43.102Z,219.29
2023-04-01T00:44:43.665Z,218.79
2023-04-01T00:45:43.048Z,220.22
2023-04-01T00:46:42.924Z,218.75
2023-04-01T00:47:42.892Z,218.58
2023-04-01T00:48:42.795Z,218.56
2023-04-01T00:49:42.819Z,218.62
2023-04-01T00:50:42.679Z,218.32
2023-04-01T00:51:42.589Z,218.13
2023-04-01T00:52:42.524Z,218.71
2023-04-01T00:53:42.467Z,218.47
2023-04-01T00:54:42.393Z,218.80
2023-04-01T00:55:42.324Z,219.15
2023-04-01T00:56:42.268Z,218.20
2023-04-01T00:57:42.225Z,219.58
2023-04-01T00:58:42.156Z,217.84
2023-04-01T00:59:42.094Z,217.46
2023-04-01T01:00:42.081Z,217.97
2023-04-01T01:01:42.015Z,216.45
2023-04-01T01:02:41.986Z,217.47
2023-04-01T01:03:41.860Z,217.23
2023-04-01T01:04:41.800Z,217.69
2023-04-01T01:05:48.853Z,217.13
2023-04-01T01:06:42.681Z,217.24
2023-04-01T01:07:41.597Z,217.36
2023-04-01T01:08:41.522Z,217.65
2023-04-01T01:09:41.510Z,217.73
2023-04-01T01:10:41.408Z,218.39
2023-04-01T01:11:43.772Z,218.74
2023-04-01T01:12:41.532Z,218.23
2023-04-01T01:13:41.471Z,219.04
2023-04-01T01:14:41.435Z,217.56
2023-04-01T01:15:41.365Z,217.93
2023-04-01T01:16:41.385Z,217.97
2023-04-01T01:17:41.326Z,216.98
2023-04-01T01:18:41.209Z,217.48
2023-04-01T01:19:41.223Z,217.49
2023-04-01T01:20:41.093Z,218.16
2023-04-01T01:21:41.048Z,217.72
2023-04-01T01:22:41.006Z,217.61
2023-04-01T01:23:40.943Z,218.10
2023-04-01T01:24:40.870Z,216.71
2023-04-01T01:25:40.838Z,217.64
2023-04-01T01:26:40.768Z,217.95
2023-04-01T01:27:40.715Z,217.41
2023-04-01T01:28:40.673Z,217.19
2023-04-01T01:29:40.628Z,217.53
2023-04-01T01:30:40.618Z,217.57
2023-04-01T01:31:40.533Z,217.75
2023-04-01T01:32:40.496Z,216.05
2023-04-01T01:33:40.417Z,216.15
2023-04-01T01:34:40.335Z,216.42
2023-04-01T01:35:40.309Z,216.56
2023-04-01T01:36:40.212Z,217.05
2023-04-01T01:37:40.143Z,217.28
2023-04-01T01:38:40.077Z,216.92
2023-04-01T01:39:40.025Z,217.02
2023-04-01T01:40:39.940Z,216.50
2023-04-01T01:41:39.895Z,216.39
2023-04-01T01:42:39.825Z,217.02
2023-04-01T01:43:39.735Z,215.83
2023-04-01T01:44:39.669Z,216.05
2023-04-01T01:45:39.608Z,216.84
2023-04-01T01:46:39.547Z,216.34
2023-04-01T01:47:39.500Z,216.05
2023-04-01T01:48:39.415Z,215.96
2023-04-01T01:49:39.331Z,216.07
2023-04-01T01:50:39.267Z,216.12
2023-04-01T01:51:39.200Z,215.77
2023-04-01T01:52:39.133Z,215.69
2023-04-01T01:53:39.074Z,216.59
2023-04-01T01:54:39.025Z,216.76
2023-04-01T01:55:38.932Z,215.05
2023-04-01T01:56:38.879Z,216.26
2023-04-01T01:57:38.844Z,217.26
2023-04-01T01:58:38.767Z,215.97
2023-04-01T01:59:38.669Z,215.38
2023-04-01T02:00:38.598Z,215.21
2023-04-01T02:01:38.574Z,215.59
2023-04-01T02:02:38.517Z,216.12
2023-04-01T02:03:38.393Z,217.01
2023-04-01T02:04:38.361Z,216.05
2023-04-01T02:05:38.267Z,214.76
2023-04-01T02:06:38.215Z,215.71
2023-04-01T02:07:38.160Z,216.12
2023-04-01T02:08:38.102Z,216.44
2023-04-01T02:09:38.036Z,215.96
2023-04-01T02:10:37.993Z,215.79
2023-04-01T02:11:37.922Z,215.62
2023-04-01T02:12:37.873Z,215.10
2023-04-01T02:13:37.820Z,214.36
2023-04-01T02:14:37.769Z,216.26
2023-04-01T02:15:37.749Z,214.17
2023-04-01T02:16:37.675Z,215.01
2023-04-01T02:17:37.677Z,214.00
2023-04-01T02:18:37.537Z,215.03
2023-04-01T02:19:37.539Z,214.29
2023-04-01T02:20:37.453Z,214.43
2023-04-01T02:21:37.368Z,214.51
2023-04-01T02:22:37.336Z,214.69
2023-04-01T02:23:37.278Z,214.02
2023-04-01T02:24:37.269Z,213.76
2023-04-01T02:25:37.175Z,214.77
2023-04-01T02:26:37.102Z,213.59
2023-04-01T02:27:37.065Z,213.83
2023-04-01T02:28:37.007Z,214.15
2023-04-01T02:29:36.956Z,214.54
2023-04-01T02:30:36.910Z,213.71
2023-04-01T02:31:36.906Z,214.39
2023-04-01T02:32:36.862Z,213.74
2023-04-01T02:33:36.817Z,214.28
2023-04-01T02:34:36.674Z,214.10
2023-04-01T02:35:36.615Z,214.20
2023-04-01T02:36:36.529Z,214.22
2023-04-01T02:37:38.544Z,214.35
2023-04-01T02:38:36.399Z,215.64
2023-04-01T02:39:36.340Z,215.82
2023-04-01T02:40:36.268Z,214.24
2023-04-01T02:41:36.199Z,214.44
2023-04-01T02:42:36.147Z,214.15
2023-04-01T02:43:36.074Z,214.19
2023-04-01T02:44:36.000Z,213.30
2023-04-01T02:45:35.973Z,213.79
2023-04-01T02:46:35.890Z,213.93
2023-04-01T02:47:35.811Z,213.62
2023-04-01T02:48:35.745Z,213.51
2023-04-01T02:49:35.669Z,213.47
2023-04-01T02:50:35.635Z,213.17
2023-04-01T02:51:35.531Z,213.17
2023-04-01T02:52:35.465Z,213.39
2023-04-01T02:53:35.440Z,213.42
2023-04-01T02:54:35.340Z,213.35
2023-04-01T02:55:35.633Z,213.58
2023-04-01T02:56:35.199Z,213.63
2023-04-01T02:57:35.154Z,212.31
2023-04-01T02:58:35.092Z,211.76
2023-04-01T02:59:35.000Z,211.96
2023-04-01T03:00:34.965Z,211.61
2023-04-01T03:01:34.920Z,211.98
2023-04-01T03:02:34.900Z,212.87
2023-04-01T03:03:34.758Z,211.81
2023-04-01T03:04:34.682Z,212.29
2023-04-01T03:05:34.929Z,211.53
2023-04-01T03:06:35.165Z,211.37
2023-04-01T03:07:34.624Z,211.59
2023-04-01T03:08:34.606Z,211.67
2023-04-01T03:09:34.596Z,211.72
2023-04-01T03:10:34.586Z,212.48
2023-04-01T03:11:34.565Z,212.45
2023-04-01T03:12:34.507Z,212.83
2023-04-01T03:13:34.462Z,212.25
2023-04-01T03:14:34.406Z,212.78
2023-04-01T03:15:34.529Z,211.48
2023-04-01T03:16:34.341Z,211.72
2023-04-01T03:17:34.272Z,212.14
2023-04-01T03:18:34.204Z,211.10
2023-04-01T03:19:34.165Z,211.87
2023-04-01T03:20:34.102Z,211.75
2023-04-01T03:21:34.058Z,210.62
2023-04-01T03:22:34.002Z,211.40
2023-04-01T03:23:33.933Z,211.69
2023-04-01T03:24:33.899Z,210.33
2023-04-01T03:25:33.986Z,210.78
2023-04-01T03:26:33.807Z,211.15
2023-04-01T03:27:33.733Z,209.95
2023-04-01T03:28:33.668Z,210.89
2023-04-01T03:29:33.628Z,211.33
2023-04-01T03:30:33.591Z,210.45
2023-04-01T03:31:33.627Z,209.25
2023-04-01T03:32:33.480Z,209.84
2023-04-01T03:33:33.386Z,209.97
2023-04-01T03:34:33.326Z,210.05
2023-04-01T03:35:33.484Z,210.09
2023-04-01T03:36:33.265Z,209.71
2023-04-01T03:37:33.126Z,210.08
2023-04-01T03:38:33.064Z,209.66
2023-04-01T03:39:33.001Z,209.68
2023-04-01T03:40:32.929Z,209.45
2023-04-01T03:41:32.899Z,208.26
2023-04-01T03:42:32.832Z,208.58
2023-04-01T03:43:32.747Z,208.88
2023-04-01T03:44:32.686Z,208.54
2023-04-01T03:45:32.888Z,208.83
2023-04-01T03:46:32.580Z,209.57
2023-04-01T03:47:32.554Z,209.72
2023-04-01T03:48:32.439Z,207.88
2023-04-01T03:49:32.347Z,208.39
2023-04-01T03:50:32.304Z,209.23
2023-04-01T03:51:32.229Z,207.58
2023-04-01T03:52:32.136Z,208.14
2023-04-01T03:53:32.078Z,208.38
2023-04-01T03:54:32.014Z,208.22
2023-04-01T03:55:32.126Z,207.25
2023-04-01T03:56:31.880Z,207.00
2023-04-01T03:57:31.835Z,206.88
2023-04-01T03:58:31.734Z,208.51
2023-04-01T03:59:31.666Z,207.57
2023-04-01T04:00:31.594Z,207.10
2023-04-01T04:01:31.700Z,206.40
2023-04-01T04:02:31.497Z,205.99
2023-04-01T04:03:31.560Z,206.95
2023-04-01T04:04:31.326Z,206.75
2023-04-01T04:05:31.595Z,206.79
2023-04-01T04:06:31.177Z,206.96
2023-04-01T04:07:31.096Z,206.00
2023-04-01T04:08:31.028Z,205.87
2023-04-01T04:09:30.964Z,207.12
2023-04-01T04:10:30.904Z,207.58
2023-04-01T04:11:30.814Z,207.32
2023-04-01T04:12:30.751Z,205.49
2023-04-01T04:13:30.685Z,206.40
2023-04-01T04:14:30.614Z,205.43
2023-04-01T04:15:30.883Z,206.76
2023-04-01T04:16:30.532Z,205.16
2023-04-01T04:17:30.484Z,205.47
2023-04-01T04:18:30.340Z,206.83
2023-04-01T04:19:30.270Z,206.26
2023-04-01T04:20:30.197Z,205.59
2023-04-01T04:21:30.149Z,205.69
2023-04-01T04:22:30.066Z,205.74
2023-04-01T04:23:30.003Z,204.79
2023-04-01T04:24:29.942Z,206.32
2023-04-01T04:25:29.880Z,205.60
2023-04-01T04:26:29.799Z,205.24
2023-04-01T04:27:29.731Z,204.83
2023-04-01T04:28:29.670Z,205.30
2023-04-01T04:29:29.579Z,205.33
2023-04-01T04:30:29.510Z,204.57
2023-04-01T04:31:29.599Z,204.13
2023-04-01T04:32:30.105Z,203.66
2023-04-01T04:33:29.328Z,204.45
2023-04-01T04:34:29.244Z,204.36
2023-04-01T04:35:29.188Z,204.58
2023-04-01T04:36:29.108Z,204.22
2023-04-01T04:37:29.038Z,204.07
2023-04-01T04:38:29.002Z,205.01
2023-04-01T04:39:28.910Z,205.01
2023-04-01T04:40:28.841Z,204.13
2023-04-01T04:41:28.770Z,203.55
2023-04-01T04:42:28.712Z,204.33
2023-04-01T04:43:28.644Z,203.64
2023-04-01T04:44:28.569Z,203.96
2023-04-01T04:45:28.508Z,204.14
2023-04-01T04:46:28.457Z,205.33
2023-04-01T04:47:28.477Z,203.12
2023-04-01T04:48:28.306Z,203.79
2023-04-01T04:49:28.237Z,203.00
2023-04-01T04:50:28.163Z,203.64
2023-04-01T04:51:28.102Z,203.40
2023-04-01T04:52:28.040Z,202.96
2023-04-01T04:53:27.969Z,201.92
2023-04-01T04:54:27.885Z,202.93
2023-04-01T04:55:27.833Z,203.08
2023-04-01T04:56:27.767Z,203.76
2023-04-01T04:57:27.752Z,202.89
2023-04-01T04:58:27.635Z,201.74
2023-04-01T04:59:27.570Z,202.75
2023-04-01T05:00:27.502Z,202.21
2023-04-01T05:01:27.509Z,201.52
2023-04-01T05:02:27.503Z,202.10
2023-04-01T05:03:27.406Z,202.47
2023-04-01T05:04:27.274Z,202.18
2023-04-01T05:05:27.204Z,202.06
2023-04-01T05:06:27.131Z,202.93
2023-04-01T05:07:27.094Z,200.77
2023-04-01T05:08:27.026Z,201.80
2023-04-01T05:09:26.961Z,202.40
2023-04-01T05:10:26.899Z,201.72
2023-04-01T05:11:26.840Z,201.20
2023-04-01T05:12:26.760Z,202.31
2023-04-01T05:13:26.704Z,201.18
2023-04-01T05:14:26.635Z,202.33
2023-04-01T05:15:26.582Z,200.55
2023-04-01T05:16:26.547Z,201.16
2023-04-01T05:17:26.516Z,200.23
2023-04-01T05:18:26.389Z,200.89
2023-04-01T05:19:26.320Z,200.96
2023-04-01T05:20:26.290Z,201.54
2023-04-01T05:21:26.213Z,200.27
2023-04-01T05:22:26.139Z,200.72
2023-04-01T05:23:26.069Z,201.12
2023-04-01T05:24:26.046Z,201.64
2023-04-01T05:25:25.957Z,200.03
2023-04-01T05:26:25.865Z,199.26
2023-04-01T05:27:26.228Z,199.39
2023-04-01T05:28:25.750Z,201.06
2023-04-01T05:29:25.652Z,201.12
2023-04-01T05:30:25.587Z,201.14
2023-04-01T05:31:25.681Z,199.90
2023-04-01T05:32:25.481Z,200.76
2023-04-01T05:33:25.389Z,200.61
2023-04-01T05:34:25.303Z,201.00
2023-04-01T05:35:25.284Z,199.51
2023-04-01T05:36:25.159Z,200.35
2023-04-01T05:37:25.085Z,200.42
2023-04-01T05:38:25.005Z,200.61
2023-04-01T05:39:24.915Z,200.39
2023-04-01T05:40:24.849Z,199.91
2023-04-01T05:41:24.777Z,200.50
2023-04-01T05:42:24.714Z,200.58
2023-04-01T05:43:24.614Z,200.07
2023-04-01T05:44:24.550Z,200.30
2023-04-01T05:45:24.459Z,200.35
2023-04-01T05:46:24.422Z,198.87
2023-04-01T05:47:24.408Z,198.50
2023-04-01T05:48:24.239Z,200.06
2023-04-01T05:49:25.221Z,199.72
2023-04-01T05:50:24.130Z,201.09
2023-04-01T05:51:24.020Z,200.04
2023-04-01T05:52:23.955Z,199.33
2023-04-01T05:53:23.884Z,199.26
2023-04-01T05:54:23.814Z,197.31
2023-04-01T05:55:23.745Z,198.83
2023-04-01T05:56:23.677Z,198.13
2023-04-01T05:57:23.671Z,197.48
2023-04-01T05:58:23.517Z,199.47
2023-04-01T05:59:23.447Z,198.87
2023-04-01T06:00:23.392Z,199.83
2023-04-01T06:01:23.288Z,198.75
2023-04-01T06:02:23.327Z,198.43
2023-04-01T06:03:23.230Z,198.62
2023-04-01T06:04:23.136Z,199.01
2023-04-01T06:05:22.983Z,198.85
2023-04-01T06:06:22.911Z,199.20
2023-04-01T06:07:22.836Z,199.35
2023-04-01T06:08:22.745Z,198.51
2023-04-01T06:09:22.673Z,198.59
2023-04-01T06:10:22.614Z,198.69
2023-04-01T06:11:22.564Z,199.07
2023-04-01T06:12:22.475Z,197.39
2023-04-01T06:13:22.377Z,198.38
2023-04-01T06:14:22.307Z,197.60
2023-04-01T06:15:22.233Z,197.56
2023-04-01T06:16:22.196Z,197.75
2023-04-01T06:17:22.092Z,198.43
2023-04-01T06:18:22.042Z,197.14
2023-04-01T06:19:21.938Z,197.72
2023-04-01T06:20:21.857Z,197.52
2023-04-01T06:21:21.779Z,198.58
2023-04-01T06:22:21.710Z,198.68
2023-04-01T06:23:21.646Z,198.82
2023-04-01T06:24:21.595Z,198.54
2023-04-01T06:25:21.513Z,198.42
2023-04-01T06:26:21.447Z,198.80
2023-04-01T06:27:21.379Z,198.19
2023-04-01T06:28:21.305Z,196.41
2023-04-01T06:29:21.232Z,197.45
2023-04-01T06:30:21.176Z,198.90
2023-04-01T06:31:21.172Z,196.81
2023-04-01T06:32:21.094Z,197.67
2023-04-01T06:33:20.976Z,196.61
2023-04-01T06:34:20.928Z,197.91
2023-04-01T06:35:20.820Z,197.20
2023-04-01T06:36:20.833Z,197.76
2023-04-01T06:37:20.679Z,197.33
2023-04-01T06:38:20.629Z,197.72
2023-04-01T06:39:20.536Z,196.47
2023-04-01T06:40:20.469Z,196.68
2023-04-01T06:41:20.419Z,196.85
2023-04-01T06:42:20.338Z,196.81
2023-04-01T06:43:20.268Z,195.27
2023-04-01T06:44:20.181Z,195.43
2023-04-01T06:45:20.107Z,195.82
2023-04-01T06:46:20.150Z,196.23
2023-04-01T06:47:19.972Z,196.96
2023-04-01T06:48:19.914Z,195.47
2023-04-01T06:49:19.868Z,196.72
2023-04-01T06:50:19.744Z,196.29
2023-04-01T06:51:19.676Z,195.46
2023-04-01T06:52:19.611Z,196.80
2023-04-01T06:53:19.540Z,196.70
2023-04-01T06:54:19.475Z,196.52
2023-04-01T06:55:20.271Z,196.66
2023-04-01T06:56:19.324Z,196.76
2023-04-01T06:57:19.328Z,196.96
2023-04-01T06:58:19.269Z,197.38
2023-04-01T06:59:19.244Z,196.80
2023-04-01T07:00:19.186Z,197.13
2023-04-01T07:01:19.194Z,196.58
2023-04-01T07:02:19.093Z,196.08
2023-04-01T07:03:19.033Z,196.05
2023-04-01T07:04:19.058Z,196.20
2023-04-01T07:05:18.935Z,195.04
2023-04-01T07:06:18.888Z,196.39
2023-04-01T07:07:18.858Z,194.89
2023-04-01T07:08:18.817Z,195.81
2023-04-01T07:09:18.764Z,195.61
2023-04-01T07:10:18.759Z,195.33
2023-04-01T07:11:18.799Z,194.98
2023-04-01T07:12:18.726Z,194.75
2023-04-01T07:13:18.730Z,195.58
2023-04-01T07:14:18.796Z,195.55
2023-04-01T07:15:18.712Z,194.57
2023-04-01T07:16:18.744Z,196.05
2023-04-01T07:17:18.705Z,194.05
2023-04-01T07:18:18.691Z,194.28
2023-04-01T07:19:18.708Z,194.47
2023-04-01T07:20:18.670Z,195.51
2023-04-01T07:21:18.650Z,194.67
2023-04-01T07:22:18.655Z,194.88
2023-04-01T07:23:18.629Z,194.99
2023-04-01T07:24:18.623Z,194.74
2023-04-01T07:25:18.601Z,194.84
2023-04-01T07:26:18.570Z,195.39
2023-04-01T07:27:18.539Z,195.47
2023-04-01T07:28:18.539Z,193.96
2023-04-01T07:29:18.501Z,195.65
2023-04-01T07:30:18.640Z,195.05
2023-04-01T07:31:18.462Z,195.34
2023-04-01T07:32:18.398Z,195.48
2023-04-01T07:33:18.386Z,195.47
2023-04-01T07:34:18.231Z,195.84
2023-04-01T07:35:18.183Z,195.42
2023-04-01T07:36:18.107Z,195.28
2023-04-01T07:37:17.984Z,195.02
2023-04-01T07:38:17.933Z,195.05
2023-04-01T07:39:17.901Z,194.50
2023-04-01T07:40:17.759Z,193.45
2023-04-01T07:41:18.269Z,194.52
2023-04-01T07:42:17.611Z,194.20
2023-04-01T07:43:17.529Z,194.29
2023-04-01T07:44:17.519Z,193.64
2023-04-01T07:45:17.464Z,194.49
2023-04-01T07:46:17.498Z,193.59
2023-04-01T07:47:17.419Z,194.99
2023-04-01T07:48:17.372Z,193.25
2023-04-01T07:49:17.359Z,192.09
2023-04-01T07:50:17.283Z,192.20
2023-04-01T07:51:17.194Z,192.60
2023-04-01T07:52:17.110Z,192.86
2023-04-01T07:53:17.038Z,192.78
2023-04-01T07:54:16.970Z,195.10
2023-04-01T07:55:16.871Z,194.97
2023-04-01T07:56:16.817Z,194.93
2023-04-01T07:57:16.752Z,193.80
2023-04-01T07:58:16.625Z,194.48
2023-04-01T07:59:16.541Z,195.83
2023-04-01T08:00:16.471Z,191.82
2023-04-01T08:01:16.371Z,192.97
2023-04-01T08:02:16.350Z,190.50
2023-04-01T08:03:16.335Z,190.73
2023-04-01T08:04:16.181Z,191.14
2023-04-01T08:05:16.047Z,191.25
2023-04-01T08:06:15.965Z,192.55
2023-04-01T08:07:15.871Z,194.21
2023-04-01T08:08:15.778Z,189.76
2023-04-01T08:09:15.749Z,190.83
2023-04-01T08:10:15.612Z,192.14
2023-04-01T08:11:15.550Z,188.25
2023-04-01T08:12:15.446Z,189.13
2023-04-01T08:13:15.371Z,187.41
2023-04-01T08:14:15.293Z,188.43
2023-04-01T08:15:15.160Z,187.39
2023-04-01T08:16:15.119Z,192.19
2023-04-01T08:17:14.989Z,190.12
2023-04-01T08:18:14.889Z,189.13
2023-04-01T08:19:14.824Z,192.83
2023-04-01T08:20:14.707Z,192.74
2023-04-01T08:21:14.621Z,188.76
2023-04-01T08:22:14.545Z,186.24
2023-04-01T08:23:14.459Z,188.46
2023-04-01T08:24:14.355Z,190.59
2023-04-01T08:25:14.253Z,190.63
2023-04-01T08:26:14.164Z,186.56
2023-04-01T08:27:14.072Z,188.03
2023-04-01T08:28:13.999Z,188.87
2023-04-01T08:29:13.901Z,184.93
2023-04-01T08:30:13.814Z,187.41
2023-04-01T08:31:13.881Z,186.98
2023-04-01T08:32:13.807Z,187.61
2023-04-01T08:33:13.694Z,187.67
2023-04-01T08:34:13.580Z,187.84
2023-04-01T08:35:13.451Z,187.74
2023-04-01T08:36:13.380Z,187.09
2023-04-01T08:37:13.265Z,185.24
2023-04-01T08:38:13.160Z,185.66
2023-04-01T08:39:13.107Z,184.37
2023-04-01T08:40:12.980Z,186.47
2023-04-01T08:41:12.870Z,184.77
2023-04-01T08:42:12.859Z,186.41
2023-04-01T08:43:12.848Z,184.35
2023-04-01T08:44:12.805Z,184.63
2023-04-01T08:45:14.560Z,183.30
2023-04-01T08:46:12.767Z,183.29
2023-04-01T08:47:12.716Z,183.86
2023-04-01T08:48:12.694Z,184.89
2023-04-01T08:49:12.640Z,182.99
2023-04-01T08:50:12.596Z,183.50
2023-04-01T08:51:12.571Z,183.68
2023-04-01T08:52:12.571Z,183.15
2023-04-01T08:53:12.512Z,184.40
2023-04-01T08:54:12.505Z,183.06
2023-04-01T08:55:12.516Z,182.23
2023-04-01T08:56:12.450Z,182.83
2023-04-01T08:57:12.437Z,184.43
2023-04-01T08:58:12.383Z,182.88
2023-04-01T08:59:12.353Z,181.53
2023-04-01T09:00:12.339Z,180.70
2023-04-01T09:01:12.277Z,184.07
2023-04-01T09:02:12.268Z,182.04
2023-04-01T09:03:12.250Z,180.88
2023-04-01T09:04:12.135Z,180.36
2023-04-01T09:05:12.075Z,181.20
2023-04-01T09:06:12.042Z,181.65
2023-04-01T09:07:12.841Z,182.57
2023-04-01T09:08:11.947Z,181.28
2023-04-01T09:09:11.907Z,181.62
2023-04-01T09:10:11.876Z,183.69
2023-04-01T09:11:11.817Z,182.69
2023-04-01T09:12:11.797Z,181.07
2023-04-01T09:13:11.723Z,183.46
2023-04-01T09:14:11.695Z,181.94
2023-04-01T09:15:11.711Z,183.11
2023-04-01T09:16:11.693Z,182.54
2023-04-01T09:17:11.622Z,183.50
2023-04-01T09:18:11.566Z,182.77
2023-04-01T09:19:11.518Z,182.27
2023-04-01T09:20:11.514Z,184.22
2023-04-01T09:21:11.446Z,184.55
2023-04-01T09:22:11.416Z,182.32
2023-04-01T09:23:11.390Z,184.07
2023-04-01T09:24:11.354Z,182.99
2023-04-01T09:25:11.325Z,183.16
2023-04-01T09:26:11.225Z,183.27
2023-04-01T09:27:11.176Z,183.70
2023-04-01T09:28:11.028Z,183.81
2023-04-01T09:29:10.954Z,184.86
2023-04-01T09:30:10.818Z,185.79
2023-04-01T09:31:10.728Z,185.36
2023-04-01T09:32:10.630Z,185.26
2023-04-01T09:33:10.523Z,185.00
2023-04-01T09:34:10.501Z,187.31
2023-04-01T09:35:10.488Z,185.94
2023-04-01T09:36:10.526Z,187.23
2023-04-01T09:37:10.423Z,186.64
2023-04-01T09:38:10.409Z,185.12
2023-04-01T09:39:10.391Z,185.43
2023-04-01T09:40:10.345Z,186.80
2023-04-01T09:41:10.335Z,186.72
2023-04-01T09:42:10.274Z,188.03
2023-04-01T09:43:10.243Z,186.71
2023-04-01T09:44:10.210Z,188.90
2023-04-01T09:45:10.195Z,186.96
2023-04-01T09:46:10.215Z,190.07
2023-04-01T09:47:10.139Z,186.21
2023-04-01T09:48:10.141Z,188.29
2023-04-01T09:49:10.105Z,187.57
2023-04-01T09:50:10.076Z,187.67
2023-04-01T09:51:10.037Z,187.38
2023-04-01T09:52:10.011Z,186.93
2023-04-01T09:53:09.962Z,188.92
2023-04-01T09:54:09.946Z,188.84
2023-04-01T09:55:09.907Z,189.56
2023-04-01T09:56:09.878Z,190.89
2023-04-01T09:57:09.883Z,189.08
2023-04-01T09:58:09.781Z,188.19
2023-04-01T09:59:09.780Z,188.85
2023-04-01T10:00:09.742Z,189.03
2023-04-01T10:01:09.721Z,189.49
2023-04-01T10:02:09.755Z,190.64
2023-04-01T10:03:09.620Z,188.13
2023-04-01T10:04:09.609Z,189.58
2023-04-01T10:05:09.568Z,190.46
2023-04-01T10:06:09.520Z,189.13
2023-04-01T10:07:09.449Z,189.92
2023-04-01T10:08:09.409Z,191.38
2023-04-01T10:09:09.368Z,193.04
2023-04-01T10:10:09.324Z,190.06
2023-04-01T10:11:09.287Z,189.04
2023-04-01T10:12:09.263Z,189.22
2023-04-01T10:13:09.214Z,190.30
2023-04-01T10:14:09.190Z,190.10
2023-04-01T10:15:09.102Z,192.75
2023-04-01T10:16:09.086Z,190.67
2023-04-01T10:17:09.054Z,193.98
2023-04-01T10:18:09.071Z,193.19
2023-04-01T10:19:08.969Z,190.95
2023-04-01T10:20:08.927Z,189.86
2023-04-01T10:21:08.889Z,192.52
2023-04-01T10:22:08.823Z,195.72
2023-04-01T10:23:08.759Z,192.01
2023-04-01T10:24:08.704Z,194.99
2023-04-01T10:25:08.660Z,196.78
2023-04-01T10:26:08.606Z,194.53
2023-04-01T10:27:08.537Z,194.58
2023-04-01T10:28:08.454Z,194.80
2023-04-01T10:29:08.322Z,194.59
2023-04-01T10:30:08.251Z,195.25
2023-04-01T10:31:08.159Z,193.80
2023-04-01T10:32:08.087Z,193.69
2023-04-01T10:33:07.991Z,195.74
2023-04-01T10:34:07.874Z,197.37
2023-04-01T10:35:07.783Z,194.97
2023-04-01T10:36:07.781Z,194.83
2023-04-01T10:37:07.614Z,195.84
2023-04-01T10:38:07.553Z,194.42
2023-04-01T10:39:07.523Z,198.37
2023-04-01T10:40:07.499Z,195.66
2023-04-01T10:41:07.414Z,195.38
2023-04-01T10:42:07.399Z,193.79
2023-04-01T10:43:07.319Z,196.51
2023-04-01T10:44:07.224Z,197.03
2023-04-01T10:45:07.182Z,197.49
2023-04-01T10:46:07.191Z,200.57
2023-04-01T10:47:07.090Z,196.18
2023-04-01T10:48:07.054Z,197.75
2023-04-01T10:49:06.993Z,193.88
2023-04-01T10:50:06.932Z,197.25
2023-04-01T10:51:06.910Z,199.69
2023-04-01T10:52:06.808Z,199.87
2023-04-01T10:53:07.324Z,199.78
2023-04-01T10:54:06.669Z,197.03
2023-04-01T10:55:06.671Z,196.14
2023-04-01T10:56:06.602Z,198.61
2023-04-01T10:57:06.572Z,197.69
2023-04-01T10:58:06.451Z,198.83
2023-04-01T10:59:06.403Z,201.14
2023-04-01T11:00:06.330Z,203.47
2023-04-01T11:01:06.251Z,200.65
2023-04-01T11:02:11.396Z,196.69
2023-04-01T11:03:07.164Z,196.84
2023-04-01T11:04:06.010Z,197.14
2023-04-01T11:05:05.936Z,197.81
2023-04-01T11:06:05.835Z,199.03
2023-04-01T11:07:05.750Z,201.18
2023-04-01T11:08:07.110Z,198.46
2023-04-01T11:09:05.563Z,199.11
2023-04-01T11:10:05.463Z,193.24
2023-04-01T11:11:05.409Z,194.98
2023-04-01T11:12:05.293Z,200.14
2023-04-01T11:13:05.202Z,192.85
2023-04-01T11:14:05.132Z,194.10
2023-04-01T11:15:05.051Z,191.18
2023-04-01T11:16:04.975Z,191.85
2023-04-01T11:17:04.862Z,191.02
2023-04-01T11:18:04.786Z,190.00
2023-04-01T11:19:04.669Z,192.82
2023-04-01T11:20:04.661Z,189.49
2023-04-01T11:21:04.519Z,190.58
2023-04-01T11:22:04.457Z,188.84
2023-04-01T11:23:04.380Z,188.89
2023-04-01T11:24:05.990Z,189.09
2023-04-01T11:25:04.212Z,189.77
2023-04-01T11:26:04.120Z,186.65
2023-04-01T11:27:04.098Z,190.46
2023-04-01T11:28:03.966Z,186.34
2023-04-01T11:29:03.851Z,185.94
2023-04-01T11:30:03.764Z,185.64
2023-04-01T11:31:03.938Z,191.13
2023-04-01T11:32:03.583Z,188.69
2023-04-01T11:33:03.520Z,183.20
2023-04-01T11:34:03.390Z,182.93
2023-04-01T11:35:03.323Z,187.52
2023-04-01T11:36:03.226Z,187.31
2023-04-01T11:37:03.155Z,182.42
2023-04-01T11:38:03.056Z,186.92
2023-04-01T11:39:02.951Z,186.19
2023-04-01T11:40:02.849Z,184.71
2023-04-01T11:41:02.783Z,189.69
2023-04-01T11:42:02.714Z,184.55
2023-04-01T11:43:02.578Z,183.91
2023-04-01T11:44:02.524Z,191.32
2023-04-01T11:45:02.421Z,185.65
2023-04-01T11:46:02.391Z,188.89
2023-04-01T11:47:02.238Z,187.09
2023-04-01T11:48:02.163Z,185.75
2023-04-01T11:49:02.048Z,185.27
2023-04-01T11:50:01.989Z,187.52
2023-04-01T11:51:01.891Z,185.15
2023-04-01T11:52:01.818Z,187.72
2023-04-01T11:53:01.734Z,185.50
2023-04-01T11:54:01.609Z,191.99
2023-04-01T11:55:01.545Z,191.95
2023-04-01T11:56:01.444Z,192.64
2023-04-01T11:57:01.390Z,192.18
2023-04-01T11:58:01.245Z,189.01
2023-04-01T11:59:01.176Z,189.20
2023-04-01T12:00:01.072Z,187.86
2023-04-01T12:01:01.019Z,190.91
2023-04-01T12:02:00.893Z,189.68
2023-04-01T12:03:00.917Z,191.73
2023-04-01T12:04:00.869Z,189.02
2023-04-01T12:05:00.718Z,196.26
2023-04-01T12:06:00.642Z,190.53
2023-04-01T12:07:00.470Z,189.29
2023-04-01T12:08:00.390Z,194.20
2023-04-01T12:09:00.302Z,194.43
2023-04-01T12:10:00.207Z,194.58
2023-04-01T12:11:00.114Z,194.21
2023-04-01T12:12:00.014Z,191.84
2023-04-01T12:13:01.668Z,194.41
2023-04-01T12:13:59.833Z,195.21
2023-04-01T12:14:59.733Z,194.34
2023-04-01T12:15:59.681Z,190.28
2023-04-01T12:16:59.564Z,195.86
2023-04-01T12:17:59.517Z,197.34
2023-04-01T12:18:59.421Z,196.04
2023-04-01T12:19:59.301Z,189.42
2023-04-01T12:20:59.205Z,192.33
2023-04-01T12:21:59.118Z,196.66
2023-04-01T12:22:59.019Z,195.32
2023-04-01T12:23:58.944Z,190.97
2023-04-01T12:24:58.836Z,192.90
2023-04-01T12:25:58.764Z,194.08
2023-04-01T12:26:58.682Z,190.01
2023-04-01T12:27:58.593Z,192.45